Mars — XPC8385 — position and weather

sailwx.info

Track history (hours):
 
Tides and Currents Weather Stations Pressure Air Temp Water Temp Dewpoint Dewpoint Depression Visibility Wind Speed Wind Dir Waves Ship Positions

Mars

Last reported at 2017-Jan-23 11:10 UTC. Time now 2017-Jan-24 09:08 UTC.
Position N 55°18' E 014°48'.

Length 14 m; draft 1.7 m.

Type: Pilot. MMSI: 219001058.

Date/timePositionNaut miles runAvg speedWind from/ knotsBaromVisibWave heightAir tempDewpointWater temp
2017-Jan-23 11:10N 55°18' E 014°48'1 0.8
2017-Jan-23 10:05N 55°17' E 014°48'0 0.0
2017-Jan-23 00:29N 55°17' E 014°48'0 0.0
2017-Jan-22 23:26N 55°17' E 014°48'0 0.0
2017-Jan-22 22:30N 55°17' E 014°48'2 2.4
2017-Jan-22 21:30N 55°19' E 014°46'2 2.3
2017-Jan-22 20:28N 55°17' E 014°48'0 0.0
2017-Jan-22 19:12N 55°17' E 014°48'0 0.1
2017-Jan-22 18:09N 55°17' E 014°48'0 0.1
2017-Jan-22 17:27N 55°17' E 014°48'0 0.0
2017-Jan-22 16:33N 55°17' E 014°48'0 0.0
2017-Jan-22 14:10N 55°17' E 014°48'0 0.0
2017-Jan-22 08:11N 55°17' E 014°48'0 0.0
2017-Jan-22 07:17N 55°17' E 014°48'0 0.3
2017-Jan-22 06:33N 55°17' E 014°48'0 0.2
2017-Jan-22 05:33N 55°17' E 014°48'0 0.0
2017-Jan-22 04:27N 55°17' E 014°48'0 0.0
2017-Jan-22 01:27N 55°17' E 014°48'0 0.0
2017-Jan-21 23:27N 55°17' E 014°48'1 0.3
2017-Jan-21 19:33N 55°17' E 014°50'1 0.3
2017-Jan-21 16:09N 55°17' E 014°48'0 0.0
2017-Jan-21 12:27N 55°17' E 014°48'0 0.0
2017-Jan-21 08:33N 55°17' E 014°48'0 0.0
2017-Jan-21 04:06N 55°17' E 014°48'0 0.0
2017-Jan-21 02:30N 55°17' E 014°48'0 0.0
2017-Jan-21 00:30N 55°17' E 014°48'0 0.0
2017-Jan-20 23:30N 55°17' E 014°48'0 0.0
2017-Jan-20 22:12N 55°17' E 014°48'0 0.0
2017-Jan-20 20:18N 55°17' E 014°48'0 0.0
2017-Jan-20 19:12N 55°17' E 014°48'2 2.4
2017-Jan-20 18:30N 55°18' E 014°50'2 1.1
2017-Jan-20 17:03N 55°17' E 014°48'0 0.0
2017-Jan-20 13:27N 55°17' E 014°48'0 0.0
2017-Jan-20 07:20N 55°17' E 014°48'0 0.0
2017-Jan-20 06:32N 55°17' E 014°48'0 0.0
2017-Jan-20 05:32N 55°17' E 014°48'0 0.0
2017-Jan-20 04:33N 55°17' E 014°48'0 0.0
2017-Jan-20 03:33N 55°17' E 014°48'0 0.0
2017-Jan-20 02:27N 55°17' E 014°48'0 0.0
2017-Jan-20 01:33N 55°17' E 014°48'0 0.0
2017-Jan-19 17:20N 55°17' E 014°48'0 0.0
2017-Jan-19 08:21N 55°17' E 014°48'0 0.0
2017-Jan-19 00:33N 55°17' E 014°48'0 0.0
2017-Jan-18 23:21N 55°17' E 014°48'0 0.0
2017-Jan-18 21:26N 55°17' E 014°48'0 0.0
2017-Jan-18 20:32N 55°17' E 014°48'0 0.0
2017-Jan-18 18:08N 55°17' E 014°48'0 0.0
2017-Jan-18 17:32N 55°17' E 014°48'0 0.0
2017-Jan-18 16:14N 55°17' E 014°48'0 0.0
2017-Jan-18 12:32N 55°17' E 014°48'2 0.3
2017-Jan-18 06:32N 55°18' E 014°51'2 2.0
2017-Jan-18 05:31N 55°17' E 014°48'0 0.0
2017-Jan-18 04:19N 55°17' E 014°48'0 0.0
2017-Jan-18 03:13N 55°17' E 014°48'0 0.0
2017-Jan-18 02:07N 55°17' E 014°48'0 0.0
2017-Jan-18 01:25N 55°17' E 014°48'0 0.0
2017-Jan-17 10:31N 55°17' E 014°48'0 0.0
2017-Jan-16 21:12N 55°17' E 014°48'0 0.0
2017-Jan-16 20:12N 55°17' E 014°48'1 0.2
2017-Jan-16 15:32N 55°17' E 014°48'1 0.2
2017-Jan-16 12:27N 55°17' E 014°48'0 0.0
2017-Jan-16 10:20N 55°17' E 014°48'3 1.4
2017-Jan-16 08:32N 55°17' E 014°52'3 0.2
2017-Jan-15 18:27N 55°17' E 014°48'0 0.0
2017-Jan-14 23:29N 55°17' E 014°48'0 0.0
2017-Jan-14 22:17N 55°17' E 014°48'0 0.0
2017-Jan-14 21:17N 55°17' E 014°48'0 0.0
2017-Jan-14 20:28N 55°17' E 014°48'0 0.0
2017-Jan-14 19:28N 55°17' E 014°48'0 0.0
2017-Jan-14 18:22N 55°17' E 014°48'0 0.0
2017-Jan-14 17:22N 55°17' E 014°48'0 0.0
2017-Jan-14 16:22N 55°17' E 014°48'0 0.0
2017-Jan-14 14:22N 55°17' E 014°48'0 0.0
2017-Jan-14 13:32N 55°17' E 014°48'0 0.0
2017-Jan-14 12:32N 55°17' E 014°48'0 0.0
2017-Jan-14 11:31N 55°17' E 014°48'0 0.0
2017-Jan-14 10:33N 55°17' E 014°48'0 0.0
2017-Jan-14 09:31N 55°17' E 014°48'0 0.0
2017-Jan-14 07:25N 55°17' E 014°48'0 0.0
2017-Jan-13 22:28N 55°17' E 014°48'0 0.0
2017-Jan-13 21:27N 55°17' E 014°48'0 0.0
2017-Jan-13 20:33N 55°17' E 014°48'0 0.0
2017-Jan-13 19:27N 55°17' E 014°48'  
Track history (hours):
 
Tides and Currents Weather Stations Pressure Air Temp Water Temp Dewpoint Dewpoint Depression Visibility Wind Speed Wind Dir Waves Ship Positions

Mars

Last reported at 2017-Jan-23 11:10 UTC. Time now 2017-Jan-24 09:08 UTC.
Position N 55°18' E 014°48'.

Length 14 m; draft 1.7 m.

Type: Pilot. MMSI: 219001058.

Date/timePositionNaut miles runAvg speedWind from/ knotsBaromVisibWave heightAir tempDewpointWater temp
2017-Jan-23 11:10N 55°18' E 014°48'1 0.8
2017-Jan-23 10:05N 55°17' E 014°48'0 0.0
2017-Jan-23 00:29N 55°17' E 014°48'0 0.0
2017-Jan-22 23:26N 55°17' E 014°48'0 0.0
2017-Jan-22 22:30N 55°17' E 014°48'2 2.4
2017-Jan-22 21:30N 55°19' E 014°46'2 2.3
2017-Jan-22 20:28N 55°17' E 014°48'0 0.0
2017-Jan-22 19:12N 55°17' E 014°48'0 0.1
2017-Jan-22 18:09N 55°17' E 014°48'0 0.1
2017-Jan-22 17:27N 55°17' E 014°48'0 0.0
2017-Jan-22 16:33N 55°17' E 014°48'0 0.0
2017-Jan-22 14:10N 55°17' E 014°48'0 0.0
2017-Jan-22 08:11N 55°17' E 014°48'0 0.0
2017-Jan-22 07:17N 55°17' E 014°48'0 0.3
2017-Jan-22 06:33N 55°17' E 014°48'0 0.2
2017-Jan-22 05:33N 55°17' E 014°48'0 0.0
2017-Jan-22 04:27N 55°17' E 014°48'0 0.0
2017-Jan-22 01:27N 55°17' E 014°48'0 0.0
2017-Jan-21 23:27N 55°17' E 014°48'1 0.3
2017-Jan-21 19:33N 55°17' E 014°50'1 0.3
2017-Jan-21 16:09N 55°17' E 014°48'0 0.0
2017-Jan-21 12:27N 55°17' E 014°48'0 0.0
2017-Jan-21 08:33N 55°17' E 014°48'0 0.0
2017-Jan-21 04:06N 55°17' E 014°48'0 0.0
2017-Jan-21 02:30N 55°17' E 014°48'0 0.0
2017-Jan-21 00:30N 55°17' E 014°48'0 0.0
2017-Jan-20 23:30N 55°17' E 014°48'0 0.0
2017-Jan-20 22:12N 55°17' E 014°48'0 0.0
2017-Jan-20 20:18N 55°17' E 014°48'0 0.0
2017-Jan-20 19:12N 55°17' E 014°48'2 2.4
2017-Jan-20 18:30N 55°18' E 014°50'2 1.1
2017-Jan-20 17:03N 55°17' E 014°48'0 0.0
2017-Jan-20 13:27N 55°17' E 014°48'0 0.0
2017-Jan-20 07:20N 55°17' E 014°48'0 0.0
2017-Jan-20 06:32N 55°17' E 014°48'0 0.0
2017-Jan-20 05:32N 55°17' E 014°48'0 0.0
2017-Jan-20 04:33N 55°17' E 014°48'0 0.0
2017-Jan-20 03:33N 55°17' E 014°48'0 0.0
2017-Jan-20 02:27N 55°17' E 014°48'0 0.0
2017-Jan-20 01:33N 55°17' E 014°48'0 0.0
2017-Jan-19 17:20N 55°17' E 014°48'0 0.0
2017-Jan-19 08:21N 55°17' E 014°48'0 0.0
2017-Jan-19 00:33N 55°17' E 014°48'0 0.0
2017-Jan-18 23:21N 55°17' E 014°48'0 0.0
2017-Jan-18 21:26N 55°17' E 014°48'0 0.0
2017-Jan-18 20:32N 55°17' E 014°48'0 0.0
2017-Jan-18 18:08N 55°17' E 014°48'0 0.0
2017-Jan-18 17:32N 55°17' E 014°48'0 0.0
2017-Jan-18 16:14N 55°17' E 014°48'0 0.0
2017-Jan-18 12:32N 55°17' E 014°48'2 0.3
2017-Jan-18 06:32N 55°18' E 014°51'2 2.0
2017-Jan-18 05:31N 55°17' E 014°48'0 0.0
2017-Jan-18 04:19N 55°17' E 014°48'0 0.0
2017-Jan-18 03:13N 55°17' E 014°48'0 0.0
2017-Jan-18 02:07N 55°17' E 014°48'0 0.0
2017-Jan-18 01:25N 55°17' E 014°48'0 0.0
2017-Jan-17 10:31N 55°17' E 014°48'0 0.0
2017-Jan-16 21:12N 55°17' E 014°48'0 0.0
2017-Jan-16 20:12N 55°17' E 014°48'1 0.2
2017-Jan-16 15:32N 55°17' E 014°48'1 0.2
2017-Jan-16 12:27N 55°17' E 014°48'0 0.0
2017-Jan-16 10:20N 55°17' E 014°48'3 1.4
2017-Jan-16 08:32N 55°17' E 014°52'3 0.2
2017-Jan-15 18:27N 55°17' E 014°48'0 0.0
2017-Jan-14 23:29N 55°17' E 014°48'0 0.0
2017-Jan-14 22:17N 55°17' E 014°48'0 0.0
2017-Jan-14 21:17N 55°17' E 014°48'0 0.0
2017-Jan-14 20:28N 55°17' E 014°48'0 0.0
2017-Jan-14 19:28N 55°17' E 014°48'0 0.0
2017-Jan-14 18:22N 55°17' E 014°48'0 0.0
2017-Jan-14 17:22N 55°17' E 014°48'0 0.0
2017-Jan-14 16:22N 55°17' E 014°48'0 0.0
2017-Jan-14 14:22N 55°17' E 014°48'0 0.0
2017-Jan-14 13:32N 55°17' E 014°48'0 0.0
2017-Jan-14 12:32N 55°17' E 014°48'0 0.0
2017-Jan-14 11:31N 55°17' E 014°48'0 0.0
2017-Jan-14 10:33N 55°17' E 014°48'0 0.0
2017-Jan-14 09:31N 55°17' E 014°48'0 0.0
2017-Jan-14 07:25N 55°17' E 014°48'0 0.0
2017-Jan-13 22:28N 55°17' E 014°48'0 0.0
2017-Jan-13 21:27N 55°17' E 014°48'0 0.0
2017-Jan-13 20:33N 55°17' E 014°48'0 0.0
2017-Jan-13 19:27N 55°17' E 014°48'  

Dump ship's entire track history